createdAt,value
2023-04-13T00:00:50.061Z,6.22
2023-04-13T00:03:17.494Z,6.34
2023-04-13T00:05:53.156Z,6.21
2023-04-13T00:08:23.184Z,6.13
2023-04-13T00:10:51.141Z,6.32
2023-04-13T00:13:20.069Z,6.19
2023-04-13T00:15:46.971Z,6.10
2023-04-13T00:18:13.630Z,6.23
2023-04-13T00:20:41.971Z,6.12
2023-04-13T00:23:09.046Z,6.09
2023-04-13T00:25:36.932Z,6.14
2023-04-13T00:28:06.276Z,5.83
2023-04-13T00:30:34.722Z,5.59
2023-04-13T00:33:03.732Z,5.77
2023-04-13T00:35:30.620Z,5.71
2023-04-13T00:37:58.905Z,5.78
2023-04-13T00:40:28.200Z,6.00
2023-04-13T00:42:54.950Z,5.78
2023-04-13T00:45:23.013Z,5.59
2023-04-13T00:47:50.900Z,5.71
2023-04-13T00:50:20.705Z,5.57
2023-04-13T00:52:49.907Z,5.41
2023-04-13T00:55:21.376Z,5.51
2023-04-13T00:57:52.730Z,5.69
2023-04-13T01:00:20.671Z,5.75
2023-04-13T01:02:47.676Z,5.86
2023-04-13T01:05:16.983Z,5.99
2023-04-13T01:08:10.490Z,5.67
2023-04-13T01:10:50.637Z,5.59
2023-04-13T01:13:30.804Z,5.75
2023-04-13T01:16:06.925Z,5.56
2023-04-13T01:18:35.538Z,5.63
2023-04-13T01:21:04.737Z,5.78
2023-04-13T01:23:58.677Z,5.51
2023-04-13T01:26:37.128Z,5.42
2023-04-13T01:29:04.381Z,5.60
2023-04-13T01:31:34.558Z,5.51
2023-04-13T01:34:01.590Z,5.54
2023-04-13T01:36:29.713Z,5.75
2023-04-13T01:38:56.959Z,5.62
2023-04-13T01:41:23.956Z,5.51
2023-04-13T01:43:50.651Z,5.63
2023-04-13T01:46:20.696Z,5.55
2023-04-13T01:48:48.940Z,5.47
2023-04-13T01:51:18.476Z,5.60
2023-04-13T01:53:51.152Z,5.68
2023-04-13T01:56:19.415Z,5.57
2023-04-13T01:58:54.750Z,5.47
2023-04-13T02:01:23.101Z,5.65
2023-04-13T02:03:52.217Z,5.44
2023-04-13T02:06:19.373Z,5.53
2023-04-13T02:08:47.371Z,5.62
2023-04-13T02:11:15.649Z,5.42
2023-04-13T02:13:42.688Z,5.36
2023-04-13T02:16:09.373Z,5.58
2023-04-13T02:18:36.739Z,5.43
2023-04-13T02:21:12.228Z,5.33
2023-04-13T02:23:40.862Z,5.44
2023-04-13T02:26:16.431Z,5.30
2023-04-13T02:28:43.158Z,5.19
2023-04-13T02:31:09.863Z,5.37
2023-04-13T02:33:37.775Z,5.25
2023-04-13T02:36:04.930Z,5.21
2023-04-13T02:38:32.138Z,5.41
2023-04-13T02:41:01.309Z,5.30
2023-04-13T02:43:28.976Z,5.22
2023-04-13T02:45:56.405Z,5.39
2023-04-13T02:48:23.715Z,5.22
2023-04-13T02:50:51.201Z,5.25
2023-04-13T02:53:18.131Z,5.39
2023-04-13T02:55:44.821Z,5.24
2023-04-13T02:58:12.473Z,5.16
2023-04-13T03:00:39.248Z,5.39
2023-04-13T03:03:06.769Z,5.33
2023-04-13T03:05:34.936Z,5.14
2023-04-13T03:08:02.469Z,5.15
2023-04-13T03:10:32.483Z,5.36
2023-04-13T03:12:59.113Z,5.12
2023-04-13T03:15:27.317Z,4.95
2023-04-13T03:17:54.005Z,5.07
2023-04-13T03:20:24.710Z,5.02
2023-04-13T03:22:53.595Z,4.79
2023-04-13T03:25:20.246Z,4.88
2023-04-13T03:27:46.892Z,4.89
2023-04-13T03:30:13.707Z,4.84
2023-04-13T03:32:40.814Z,5.03
2023-04-13T03:35:07.741Z,4.92
2023-04-13T03:37:41.441Z,4.81
2023-04-13T03:40:12.585Z,4.96
2023-04-13T03:42:40.513Z,4.80
2023-04-13T03:45:07.606Z,4.85
2023-04-13T03:47:35.734Z,5.03
2023-04-13T03:50:05.145Z,4.87
2023-04-13T03:52:32.080Z,4.79
2023-04-13T03:54:58.830Z,4.98
2023-04-13T03:57:26.715Z,4.84
2023-04-13T03:59:53.371Z,4.98
2023-04-13T04:02:21.585Z,5.06
2023-04-13T04:04:50.482Z,4.89
2023-04-13T04:07:18.442Z,4.87
2023-04-13T04:09:46.349Z,5.10
2023-04-13T04:12:14.655Z,4.94
2023-04-13T04:14:41.463Z,4.87
2023-04-13T04:17:08.051Z,5.05
2023-04-13T04:19:34.654Z,4.95
2023-04-13T04:22:04.831Z,4.91
2023-04-13T04:24:31.500Z,5.18
2023-04-13T04:26:59.630Z,5.10
2023-04-13T04:29:34.242Z,5.09
2023-04-13T04:32:02.360Z,5.37
2023-04-13T04:34:29.389Z,5.27
2023-04-13T04:37:00.237Z,5.39
2023-04-13T04:39:33.032Z,5.41
2023-04-13T04:42:07.573Z,5.31
2023-04-13T04:44:34.492Z,5.52
2023-04-13T04:47:04.021Z,5.50
2023-04-13T04:49:30.693Z,5.38
2023-04-13T04:51:59.413Z,5.46
2023-04-13T04:54:26.099Z,5.54
2023-04-13T04:56:54.038Z,5.54
2023-04-13T04:59:20.830Z,5.69
2023-04-13T05:01:49.706Z,5.53
2023-04-13T05:04:18.757Z,5.44
2023-04-13T05:06:45.432Z,5.60
2023-04-13T05:09:13.321Z,5.54
2023-04-13T05:11:39.925Z,5.49
2023-04-13T05:14:08.010Z,5.75
2023-04-13T05:16:36.053Z,5.54
2023-04-13T05:19:04.649Z,5.46
2023-04-13T05:21:31.235Z,5.71
2023-04-13T05:23:57.876Z,5.54
2023-04-13T05:26:25.580Z,5.59
2023-04-13T05:28:52.378Z,5.76
2023-04-13T05:31:19.011Z,5.56
2023-04-13T05:33:46.522Z,5.72
2023-04-13T05:36:14.501Z,5.73
2023-04-13T05:38:43.092Z,5.53
2023-04-13T05:41:10.442Z,5.69
2023-04-13T05:43:38.579Z,5.71
2023-04-13T05:46:08.628Z,5.68
2023-04-13T05:48:35.430Z,5.82
2023-04-13T05:51:03.144Z,5.64
2023-04-13T05:53:29.789Z,5.57
2023-04-13T05:55:56.460Z,5.78
2023-04-13T05:58:23.103Z,5.72
2023-04-13T06:00:49.732Z,5.71
2023-04-13T06:03:17.127Z,5.92
2023-04-13T06:05:45.963Z,5.86
2023-04-13T06:08:14.909Z,5.84
2023-04-13T06:10:43.302Z,5.96
2023-04-13T06:13:11.582Z,5.79
2023-04-13T06:15:40.257Z,5.98
2023-04-13T06:18:08.312Z,6.04
2023-04-13T06:20:34.920Z,5.98
2023-04-13T06:23:01.616Z,6.19
2023-04-13T06:25:28.264Z,6.05
2023-04-13T06:27:54.975Z,5.86
2023-04-13T06:30:22.135Z,6.02
2023-04-13T06:32:48.863Z,5.96
2023-04-13T06:35:17.499Z,5.83
2023-04-13T06:37:44.239Z,6.08
2023-04-13T06:40:15.825Z,5.88
2023-04-13T06:42:43.115Z,5.95
2023-04-13T06:45:11.237Z,6.08
2023-04-13T06:47:44.314Z,6.04
2023-04-13T06:50:18.509Z,6.11
2023-04-13T06:52:48.515Z,6.31
2023-04-13T06:55:15.914Z,6.25
2023-04-13T06:57:44.045Z,6.41
2023-04-13T07:00:28.985Z,6.42
2023-04-13T07:02:58.557Z,6.34
2023-04-13T07:05:26.044Z,6.51
2023-04-13T07:07:53.188Z,6.42
2023-04-13T07:10:19.886Z,6.45
2023-04-13T07:12:46.551Z,6.62
2023-04-13T07:15:13.153Z,6.56
2023-04-13T07:17:40.963Z,6.68
2023-04-13T07:20:08.442Z,6.68
2023-04-13T07:22:36.953Z,6.67
2023-04-13T07:25:04.120Z,6.83
2023-04-13T07:27:30.796Z,6.80
2023-04-13T07:29:57.415Z,6.85
2023-04-13T07:32:30.284Z,6.96
2023-04-13T07:35:02.993Z,6.75
2023-04-13T07:37:29.848Z,6.90
2023-04-13T07:39:58.269Z,6.98
2023-04-13T07:42:26.269Z,6.99
2023-04-13T07:44:56.746Z,7.13
2023-04-13T07:47:23.429Z,7.01
2023-04-13T07:49:50.090Z,7.08
2023-04-13T07:52:17.473Z,7.13
2023-04-13T07:54:44.280Z,7.03
2023-04-13T07:57:12.340Z,7.23
2023-04-13T07:59:38.972Z,7.08
2023-04-13T08:02:07.906Z,7.10
2023-04-13T08:04:35.113Z,7.22
2023-04-13T08:07:05.734Z,6.99
2023-04-13T08:09:36.159Z,7.10
2023-04-13T08:12:05.125Z,6.96
2023-04-13T08:14:33.045Z,6.99
2023-04-13T08:17:03.845Z,7.08
2023-04-13T08:19:32.124Z,6.89
2023-04-13T08:21:59.633Z,6.93
2023-04-13T08:24:27.661Z,6.85
2023-04-13T08:26:58.776Z,6.74
2023-04-13T08:29:25.735Z,6.95
2023-04-13T08:31:53.017Z,6.79
2023-04-13T08:34:19.749Z,6.89
2023-04-13T08:36:46.547Z,6.92
2023-04-13T08:39:13.560Z,6.86
2023-04-13T08:41:45.506Z,7.03
2023-04-13T08:44:13.653Z,7.03
2023-04-13T08:46:44.072Z,7.06
2023-04-13T08:49:13.446Z,7.14
2023-04-13T08:51:43.462Z,6.95
2023-04-13T08:54:14.048Z,7.14
2023-04-13T08:56:46.782Z,7.15
2023-04-13T08:59:15.867Z,7.18
2023-04-13T09:01:46.647Z,7.38
2023-04-13T09:04:18.189Z,7.17
2023-04-13T09:06:47.894Z,7.33
2023-04-13T09:09:15.120Z,7.23
2023-04-13T09:11:43.372Z,7.28
2023-04-13T09:14:10.419Z,7.48
2023-04-13T09:16:42.033Z,7.43
2023-04-13T09:19:10.977Z,7.64
2023-04-13T09:21:39.486Z,7.62
2023-04-13T09:24:08.396Z,7.60
2023-04-13T09:26:46.441Z,7.78
2023-04-13T09:29:18.020Z,7.74
2023-04-13T09:31:46.609Z,8.00
2023-04-13T09:34:14.644Z,8.00
2023-04-13T09:36:53.585Z,7.99
2023-04-13T09:39:28.965Z,7.96
2023-04-13T09:41:56.289Z,7.91
2023-04-13T09:44:34.742Z,8.07
2023-04-13T09:47:03.223Z,7.92
2023-04-13T09:49:40.663Z,7.95
2023-04-13T09:52:19.229Z,7.92
2023-04-13T09:54:53.831Z,7.76
2023-04-13T09:57:26.196Z,7.82
2023-04-13T09:59:53.558Z,7.64
2023-04-13T10:02:22.183Z,7.65
2023-04-13T10:04:49.694Z,7.92
2023-04-13T10:07:18.047Z,7.93
2023-04-13T10:09:44.683Z,8.09
2023-04-13T10:12:13.832Z,7.87
2023-04-13T10:14:45.857Z,7.81
2023-04-13T10:17:28.411Z,8.03
2023-04-13T10:20:01.507Z,7.80
2023-04-13T10:22:31.781Z,7.89
2023-04-13T10:24:58.482Z,7.97
2023-04-13T10:27:28.358Z,7.81
2023-04-13T10:29:55.199Z,7.91
2023-04-13T10:32:24.147Z,7.59
2023-04-13T10:34:52.630Z,7.55
2023-04-13T10:37:23.108Z,7.58
2023-04-13T10:40:02.236Z,7.41
2023-04-13T10:45:19.514Z,7.72
2023-04-13T10:47:46.655Z,7.74
2023-04-13T10:50:17.978Z,7.97
2023-04-13T10:53:26.047Z,8.19
2023-04-13T10:55:53.775Z,8.14
2023-04-13T10:58:20.419Z,8.34
2023-04-13T11:00:49.267Z,8.29
2023-04-13T11:03:17.007Z,8.29
2023-04-13T11:05:47.322Z,8.56
2023-04-13T11:08:21.076Z,8.65
2023-04-13T11:10:55.447Z,8.75
2023-04-13T11:13:25.481Z,8.82
2023-04-13T11:16:01.542Z,8.79
2023-04-13T11:18:28.380Z,9.02
2023-04-13T11:20:56.682Z,9.04
2023-04-13T11:23:24.441Z,9.04
2023-04-13T11:25:56.330Z,9.13
2023-04-13T11:28:23.641Z,9.03
2023-04-13T11:30:56.535Z,9.18
2023-04-13T11:33:26.956Z,9.06
2023-04-13T11:35:55.565Z,8.96
2023-04-13T11:38:22.862Z,9.09
2023-04-13T11:40:53.366Z,9.10
2023-04-13T11:43:24.735Z,9.08
2023-04-13T11:45:52.417Z,9.19
2023-04-13T11:48:20.662Z,9.05
2023-04-13T11:50:49.447Z,9.08
2023-04-13T11:53:18.250Z,9.10
2023-04-13T11:55:53.421Z,8.89
2023-04-13T11:58:21.389Z,8.98
2023-04-13T12:00:49.024Z,8.84
2023-04-13T12:05:49.022Z,8.87
2023-04-13T12:08:24.552Z,8.73
2023-04-13T12:14:06.519Z,8.78
2023-04-13T12:17:03.180Z,8.54
2023-04-13T12:19:27.594Z,8.72
2023-04-13T12:21:56.691Z,8.57
2023-04-13T12:24:42.634Z,8.57
2023-04-13T12:27:18.509Z,8.58
2023-04-13T12:29:46.016Z,8.40
2023-04-13T12:32:14.557Z,8.64
2023-04-13T12:34:42.431Z,8.56
2023-04-13T12:37:11.139Z,8.50
2023-04-13T12:39:38.079Z,8.73
2023-04-13T12:42:05.290Z,8.52
2023-04-13T12:44:34.141Z,8.38
2023-04-13T12:47:01.768Z,8.53
2023-04-13T12:49:28.608Z,8.50
2023-04-13T12:51:56.566Z,8.41
2023-04-13T12:54:23.278Z,8.59
2023-04-13T12:56:51.021Z,8.46
2023-04-13T12:59:19.170Z,8.47
2023-04-13T13:01:45.786Z,8.70
2023-04-13T13:04:12.493Z,8.57
2023-04-13T13:06:40.517Z,8.76
2023-04-13T13:09:07.795Z,8.86
2023-04-13T13:11:34.416Z,8.66
2023-04-13T13:14:01.008Z,8.73
2023-04-13T13:16:29.128Z,8.66
2023-04-13T13:18:55.966Z,8.45
2023-04-13T13:21:24.574Z,8.45
2023-04-13T13:23:51.266Z,8.30
2023-04-13T13:28:50.667Z,8.17
2023-04-13T13:31:17.457Z,8.09
2023-04-13T13:33:44.143Z,7.83
2023-04-13T13:36:11.378Z,7.79
2023-04-13T13:38:38.164Z,7.66
2023-04-13T13:41:04.957Z,7.45
2023-04-13T13:43:32.684Z,7.54
2023-04-13T13:45:59.434Z,7.34
2023-04-13T13:48:26.370Z,7.22
2023-04-13T13:50:53.012Z,7.24
2023-04-13T13:53:19.734Z,7.02
2023-04-13T13:55:47.788Z,6.94
2023-04-13T13:58:14.440Z,6.93
2023-04-13T14:00:41.490Z,6.81
2023-04-13T14:03:08.351Z,6.57
2023-04-13T14:05:35.859Z,6.74
2023-04-13T14:08:02.640Z,6.57
2023-04-13T14:10:29.310Z,6.32
2023-04-13T14:12:57.701Z,6.41
2023-04-13T14:15:24.369Z,6.37
2023-04-13T14:18:02.402Z,6.14
2023-04-13T14:20:39.054Z,6.06
2023-04-13T14:23:06.301Z,6.07
2023-04-13T14:25:32.995Z,5.86
2023-04-13T14:28:00.922Z,5.85
2023-04-13T14:30:28.471Z,5.89
2023-04-13T14:32:56.312Z,5.65
2023-04-13T14:35:24.573Z,5.54
2023-04-13T14:37:51.390Z,5.69
2023-04-13T14:40:23.185Z,5.56
2023-04-13T14:42:52.985Z,5.39
2023-04-13T14:45:24.030Z,5.46
2023-04-13T14:47:50.771Z,5.51
2023-04-13T14:50:18.940Z,5.29
2023-04-13T14:52:46.815Z,5.19
2023-04-13T14:55:15.639Z,5.33
2023-04-13T14:57:42.362Z,5.28
2023-04-13T15:00:30.165Z,5.09
2023-04-13T15:02:57.147Z,5.09
2023-04-13T15:05:24.796Z,5.14
2023-04-13T15:07:53.217Z,4.94
2023-04-13T15:10:21.644Z,4.81
2023-04-13T15:12:49.532Z,5.00
2023-04-13T15:15:17.533Z,4.84
2023-04-13T15:17:44.267Z,4.73
2023-04-13T15:20:12.107Z,4.89
2023-04-13T15:22:38.871Z,4.71
2023-04-13T15:25:05.961Z,4.59
2023-04-13T15:27:32.724Z,4.80
2023-04-13T15:30:00.170Z,4.59
2023-04-13T15:32:27.044Z,4.59
2023-04-13T15:34:56.331Z,4.69
2023-04-13T15:37:26.119Z,4.47
2023-04-13T15:39:54.728Z,4.43
2023-04-13T15:42:22.397Z,4.58
2023-04-13T15:44:50.310Z,4.39
2023-04-13T15:47:16.943Z,4.43
2023-04-13T15:49:43.609Z,4.42
2023-04-13T15:52:10.440Z,4.27
2023-04-13T15:54:37.185Z,4.30
2023-04-13T15:57:03.898Z,4.38
2023-04-13T15:59:32.748Z,4.18
2023-04-13T16:01:59.478Z,4.23
2023-04-13T16:04:26.719Z,4.26
2023-04-13T16:07:09.437Z,4.17
2023-04-13T16:09:40.060Z,4.30
2023-04-13T16:12:10.856Z,4.24
2023-04-13T16:14:46.589Z,4.17
2023-04-13T16:17:15.082Z,4.35
2023-04-13T16:19:46.666Z,4.20
2023-04-13T16:22:13.429Z,4.22
2023-04-13T16:24:41.138Z,4.35
2023-04-13T16:27:08.683Z,4.19
2023-04-13T16:29:36.965Z,4.24
2023-04-13T16:32:03.562Z,4.29
2023-04-13T16:34:30.287Z,4.18
2023-04-13T16:36:57.725Z,4.26
2023-04-13T16:39:24.550Z,4.29
2023-04-13T16:41:51.391Z,4.24
2023-04-13T16:44:18.067Z,4.36
2023-04-13T16:46:46.006Z,4.33
2023-04-13T16:49:12.642Z,4.21
2023-04-13T16:51:39.255Z,4.35
2023-04-13T16:54:12.885Z,4.36
2023-04-13T16:56:40.861Z,4.23
2023-04-13T16:59:07.459Z,4.37
2023-04-13T17:01:36.105Z,4.27
2023-04-13T17:04:04.996Z,4.21
2023-04-13T17:06:32.259Z,4.40
2023-04-13T17:08:59.692Z,4.27
2023-04-13T17:11:26.438Z,4.27
2023-04-13T17:13:53.093Z,4.44
2023-04-13T17:16:19.897Z,4.27
2023-04-13T17:18:46.549Z,4.23
2023-04-13T17:21:15.028Z,4.36
2023-04-13T17:23:41.959Z,4.22
2023-04-13T17:26:08.624Z,4.26
2023-04-13T17:28:35.280Z,4.32
2023-04-13T17:31:01.937Z,4.10
2023-04-13T17:33:30.076Z,4.15
2023-04-13T17:35:56.730Z,4.29
2023-04-13T17:38:23.428Z,4.10
2023-04-13T17:40:51.041Z,4.15
2023-04-13T17:43:18.000Z,4.17
2023-04-13T17:45:45.935Z,4.01
2023-04-13T17:48:12.585Z,4.16
2023-04-13T17:50:39.228Z,4.14
2023-04-13T17:53:06.067Z,4.01
2023-04-13T17:55:36.384Z,4.12
2023-04-13T17:58:03.029Z,4.07
2023-04-13T18:00:29.702Z,4.02
2023-04-13T18:02:58.259Z,4.19
2023-04-13T18:05:26.638Z,4.05
2023-04-13T18:07:53.733Z,4.01
2023-04-13T18:10:20.438Z,4.23
2023-04-13T18:12:47.088Z,4.06
2023-04-13T18:15:13.690Z,4.00
2023-04-13T18:17:42.918Z,4.17
2023-04-13T18:20:10.502Z,4.04
2023-04-13T18:22:38.762Z,4.02
2023-04-13T18:25:05.559Z,4.21
2023-04-13T18:27:32.283Z,4.00
2023-04-13T18:30:00.050Z,4.05
2023-04-13T18:32:26.669Z,4.17
2023-04-13T18:34:53.436Z,3.95
2023-04-13T18:37:20.437Z,3.94
2023-04-13T18:39:47.089Z,4.08
2023-04-13T18:42:13.740Z,3.91
2023-04-13T18:44:41.811Z,3.95
2023-04-13T18:47:08.413Z,4.04
2023-04-13T18:49:35.043Z,3.86
2023-04-13T18:52:01.683Z,3.97
2023-04-13T18:54:29.410Z,4.06
2023-04-13T18:56:56.097Z,3.88
2023-04-13T18:59:22.849Z,3.97
2023-04-13T19:01:49.528Z,3.99
2023-04-13T19:04:16.645Z,3.84
2023-04-13T19:06:44.406Z,3.94
2023-04-13T19:09:11.057Z,3.94
2023-04-13T19:11:55.349Z,3.80
2023-04-13T19:14:21.995Z,3.99
2023-04-13T19:16:52.479Z,3.87
2023-04-13T19:19:21.514Z,3.71
2023-04-13T19:21:49.481Z,3.91
2023-04-13T19:24:16.180Z,3.81
2023-04-13T19:26:43.214Z,3.67
2023-04-13T19:29:13.506Z,3.84
2023-04-13T19:31:44.429Z,3.77
2023-04-13T19:34:13.581Z,3.65
2023-04-13T19:36:41.704Z,3.82
2023-04-13T19:39:11.284Z,3.74
2023-04-13T19:41:40.833Z,3.66
2023-04-13T19:44:10.193Z,3.83
2023-04-13T19:46:37.253Z,3.84
2023-04-13T19:49:03.986Z,3.75
2023-04-13T19:51:32.877Z,3.93
2023-04-13T19:54:01.975Z,3.78
2023-04-13T19:56:34.585Z,3.77
2023-04-13T19:59:02.560Z,3.94
2023-04-13T20:01:33.162Z,3.76
2023-04-13T20:04:01.476Z,3.72
2023-04-13T20:06:28.885Z,3.87
2023-04-13T20:09:06.616Z,3.75
2023-04-13T20:11:34.831Z,3.73
2023-04-13T20:14:02.273Z,3.90
2023-04-13T20:16:30.409Z,3.73
2023-04-13T20:18:58.487Z,3.74
2023-04-13T20:21:25.589Z,3.94
2023-04-13T20:23:52.270Z,3.75
2023-04-13T20:26:18.877Z,3.75
2023-04-13T20:28:45.797Z,3.88
2023-04-13T20:31:12.866Z,3.76
2023-04-13T20:33:40.841Z,3.74
2023-04-13T20:36:07.486Z,3.90
2023-04-13T20:38:36.484Z,3.73
2023-04-13T20:41:04.472Z,3.65
2023-04-13T20:43:31.084Z,3.85
2023-04-13T20:45:59.601Z,3.71
2023-04-13T20:51:02.930Z,3.85
2023-04-13T20:53:29.922Z,3.71
2023-04-13T20:55:57.662Z,3.72
2023-04-13T20:58:24.684Z,3.85
2023-04-13T21:00:51.314Z,3.72
2023-04-13T21:03:18.017Z,3.79
2023-04-13T21:05:45.519Z,3.92
2023-04-13T21:08:14.562Z,3.72
2023-04-13T21:10:42.478Z,3.74
2023-04-13T21:13:11.830Z,3.92
2023-04-13T21:15:38.588Z,3.77
2023-04-13T21:18:05.425Z,3.74
2023-04-13T21:20:32.103Z,3.92
2023-04-13T21:22:58.821Z,3.76
2023-04-13T21:25:26.012Z,3.79
2023-04-13T21:27:53.506Z,3.90
2023-04-13T21:30:21.570Z,3.78
2023-04-13T21:32:49.122Z,3.77
2023-04-13T21:35:18.572Z,3.98
2023-04-13T21:37:45.210Z,3.75
2023-04-13T21:40:11.975Z,3.67
2023-04-13T21:42:40.794Z,3.90
2023-04-13T21:45:08.069Z,3.72
2023-04-13T21:47:34.738Z,3.73
2023-04-13T21:50:02.702Z,3.88
2023-04-13T21:52:29.302Z,3.75
2023-04-13T21:54:56.062Z,3.71
2023-04-13T21:57:22.677Z,3.88
2023-04-13T21:59:49.360Z,3.74
2023-04-13T22:02:16.261Z,3.68
2023-04-13T22:04:43.000Z,3.86
2023-04-13T22:07:10.006Z,3.76
2023-04-13T22:09:36.692Z,3.67
2023-04-13T22:12:04.753Z,3.86
2023-04-13T22:14:31.397Z,3.68
2023-04-13T22:16:59.492Z,3.63
2023-04-13T22:19:27.711Z,3.79
2023-04-13T22:21:54.354Z,3.72
2023-04-13T22:24:21.376Z,3.62
2023-04-13T22:26:48.044Z,3.81
2023-04-13T22:29:14.658Z,3.70
2023-04-13T22:31:42.844Z,3.65
2023-04-13T22:34:09.456Z,3.86
2023-04-13T22:36:36.096Z,3.79
2023-04-13T22:39:02.881Z,3.60
2023-04-13T22:41:29.717Z,3.76
2023-04-13T22:43:58.069Z,3.72
2023-04-13T22:46:25.989Z,3.57
2023-04-13T22:48:54.380Z,3.70
2023-04-13T22:51:20.979Z,3.72
2023-04-13T22:53:53.001Z,3.58
2023-04-13T22:56:19.650Z,3.70
2023-04-13T22:58:47.359Z,3.74
2023-04-13T23:01:13.961Z,3.60
2023-04-13T23:03:40.798Z,3.65
2023-04-13T23:06:08.304Z,3.72
2023-04-13T23:08:34.960Z,3.57
2023-04-13T23:11:08.954Z,3.56
2023-04-13T23:13:36.678Z,3.76
2023-04-13T23:16:05.175Z,3.56
2023-04-13T23:18:31.849Z,3.54
2023-04-13T23:20:58.466Z,3.73
2023-04-13T23:23:26.277Z,3.53
2023-04-13T23:25:52.877Z,3.53
2023-04-13T23:28:20.633Z,3.72
2023-04-13T23:30:47.241Z,3.55
2023-04-13T23:33:13.901Z,3.50
2023-04-13T23:35:40.618Z,3.69
2023-04-13T23:38:07.296Z,3.57
2023-04-13T23:40:33.917Z,3.43
2023-04-13T23:43:01.693Z,3.64
2023-04-13T23:45:28.537Z,3.50
2023-04-13T23:47:55.615Z,3.30
2023-04-13T23:50:23.484Z,3.49
2023-04-13T23:52:50.109Z,3.35
2023-04-13T23:55:16.737Z,3.29
2023-04-13T23:57:43.401Z,3.48
